Time;durP1;ratioP1;P1;durP2;ratioP2;P2;SDS_P1;SDS_P2;PMS_P1;PMS_P2;Temp;Humidity;BMP_temperature;BMP_pressure;BME280_temperature;BME280_humidity;BME280_pressure;Samples;Min_cycle;Max_cycle;Signal;HPM_P1;HPM_P2
2023/09/10 00:00:29;;;;;;;18.58;13.57;;;;;;;19.58;89.71;101583.53;5003079;28;20049;-78
2023/09/10 00:02:56;;;;;;;15.63;12.57;;;;;;;19.51;89.59;101574.97;5006928;28;20066;-77
2023/09/10 00:05:24;;;;;;;18.70;14.32;;;;;;;19.46;89.57;101576.19;5008252;28;20088;-77
2023/09/10 00:07:53;;;;;;;16.90;12.35;;;;;;;19.42;89.89;101574.66;5005636;28;20038;-77
2023/09/10 00:10:20;;;;;;;16.40;13.15;;;;;;;19.37;89.57;101577.59;5011374;28;20132;-77
2023/09/10 00:12:47;;;;;;;17.77;14.45;;;;;;;19.35;89.79;101585.69;5002113;28;20468;-77
2023/09/10 00:15:14;;;;;;;17.98;14.55;;;;;;;19.34;89.76;101573.25;5006124;28;20046;-76
2023/09/10 00:17:41;;;;;;;17.95;13.93;;;;;;;19.36;90.65;101583.88;5001986;28;20132;-76
2023/09/10 00:20:10;;;;;;;18.42;14.48;;;;;;;19.38;90.44;101572.16;4981999;28;20049;-76
2023/09/10 00:22:40;;;;;;;17.17;14.77;;;;;;;19.39;90.40;101573.88;5005148;28;20045;-78
2023/09/10 00:25:07;;;;;;;19.23;15.25;;;;;;;19.40;90.99;101569.38;5002664;28;20620;-79
2023/09/10 00:27:34;;;;;;;19.33;15.75;;;;;;;19.48;91.38;101572.50;5005438;28;20069;-79
2023/09/10 00:30:01;;;;;;;16.40;14.50;;;;;;;19.57;91.41;101576.44;5004509;28;20112;-79
2023/09/10 00:32:29;;;;;;;18.52;14.55;;;;;;;19.61;91.45;101574.47;5021052;28;20042;-79
2023/09/10 00:34:56;;;;;;;22.15;17.42;;;;;;;19.63;91.64;101569.91;5005325;28;20673;-80
2023/09/10 00:37:23;;;;;;;21.70;17.90;;;;;;;19.62;91.62;101566.38;5002843;28;20076;-78
2023/09/10 00:39:50;;;;;;;20.88;16.42;;;;;;;19.64;92.24;101569.78;5002849;28;20050;-79
2023/09/10 00:42:17;;;;;;;20.60;15.90;;;;;;;19.65;92.29;101568.84;5004902;28;20293;-80
2023/09/10 00:44:45;;;;;;;18.05;15.70;;;;;;;19.67;92.35;101574.13;5003504;28;20042;-80
2023/09/10 00:47:13;;;;;;;23.33;17.98;;;;;;;19.70;92.54;101565.91;5003357;28;20038;-79
2023/09/10 00:49:41;;;;;;;24.48;18.48;;;;;;;19.71;92.48;101568.50;5006168;28;20422;-79
2023/09/10 00:52:08;;;;;;;27.48;21.20;;;;;;;19.70;92.79;101560.56;5017888;28;20092;-79
2023/09/10 00:54:36;;;;;;;23.55;19.55;;;;;;;19.67;92.87;101564.28;5000743;28;20050;-78
2023/09/10 00:57:04;;;;;;;25.02;20.85;;;;;;;19.67;93.27;101564.28;5004390;28;20046;-78
2023/09/10 00:59:31;;;;;;;24.42;21.20;;;;;;;19.64;93.75;101561.78;5004032;28;20129;-79
2023/09/10 01:01:58;;;;;;;25.35;20.65;;;;;;;19.64;94.13;101558.25;5003086;28;20068;-78
2023/09/10 01:04:26;;;;;;;25.77;21.15;;;;;;;19.61;93.78;101567.31;4998914;28;20052;-79
2023/09/10 01:06:53;;;;;;;26.13;20.63;;;;;;;19.64;94.92;101568.94;5002522;28;20687;-79
2023/09/10 01:09:21;;;;;;;27.77;22.33;;;;;;;19.66;94.65;101567.06;5003132;28;20038;-79
2023/09/10 01:12:35;;;;;;;28.00;22.33;;;;;;;19.61;94.40;101566.44;5003102;28;20056;-79
2023/09/10 01:15:30;;;;;;;29.52;23.75;;;;;;;19.56;94.75;101574.72;5001849;28;20044;-79
2023/09/10 01:18:20;;;;;;;29.10;24.65;;;;;;;19.55;94.78;101573.00;4993000;28;20069;-79
2023/09/10 01:21:06;;;;;;;28.90;24.20;;;;;;;19.58;94.91;101575.50;4999956;28;20038;-79
2023/09/10 01:23:52;;;;;;;33.63;25.25;;;;;;;19.63;95.19;101576.13;5018836;28;20121;-77
2023/09/10 01:26:20;;;;;;;30.27;25.60;;;;;;;19.66;95.21;101570.56;5003173;28;20488;-79
2023/09/10 01:28:47;;;;;;;26.75;22.40;;;;;;;19.65;94.92;101573.34;5004168;28;20441;-78
2023/09/10 01:31:14;;;;;;;26.58;23.30;;;;;;;19.63;95.04;101572.56;5004910;28;20049;-78
2023/09/10 01:33:52;;;;;;;27.17;24.08;;;;;;;19.62;95.10;101576.19;5004444;28;20574;-79
2023/09/10 01:36:38;;;;;;;30.05;25.73;;;;;;;19.59;95.18;101576.34;5003739;28;20046;-78
2023/09/10 01:39:12;;;;;;;32.28;26.77;;;;;;;19.59;95.21;101574.56;5035536;28;20053;-79
2023/09/10 01:41:43;;;;;;;31.73;24.55;;;;;;;19.60;95.33;101578.09;5004036;28;20060;-79
2023/09/10 01:44:13;;;;;;;28.05;22.90;;;;;;;19.61;95.54;101578.00;5001078;28;20070;-79
2023/09/10 01:46:42;;;;;;;27.10;24.02;;;;;;;19.61;95.23;101587.84;5004766;28;20611;-79
2023/09/10 01:49:10;;;;;;;27.55;24.30;;;;;;;19.57;94.96;101579.13;5003132;28;20142;-80
2023/09/10 01:51:37;;;;;;;31.65;26.67;;;;;;;19.55;95.26;101576.53;4999247;28;20048;-80
2023/09/10 01:54:04;;;;;;;28.60;24.30;;;;;;;19.54;95.64;101582.84;4998207;28;20069;-80
2023/09/10 01:56:31;;;;;;;32.97;27.55;;;;;;;19.54;96.07;101580.16;4994402;28;20410;-80
2023/09/10 01:58:58;;;;;;;33.80;27.67;;;;;;;19.51;96.87;101572.31;4999182;28;20683;-79
2023/09/10 02:01:25;;;;;;;34.13;29.55;;;;;;;19.48;97.10;101576.97;5002523;28;20124;-81
2023/09/10 02:03:52;;;;;;;36.22;30.83;;;;;;;19.43;97.60;101573.72;4997535;28;20092;-81
2023/09/10 02:06:20;;;;;;;33.92;28.25;;;;;;;19.42;97.99;101582.69;5003665;28;20601;-80
2023/09/10 02:08:47;;;;;;;40.42;29.50;;;;;;;19.39;97.96;101583.69;5006195;28;20088;-81
2023/09/10 02:11:14;;;;;;;33.65;27.90;;;;;;;19.32;98.02;101585.00;5003449;28;20046;-79
2023/09/10 02:13:41;;;;;;;32.70;27.83;;;;;;;19.28;98.16;101588.78;5002145;28;21034;-78
2023/09/10 02:16:08;;;;;;;33.60;29.25;;;;;;;19.27;98.58;101579.91;5001169;28;20196;-78
2023/09/10 02:18:36;;;;;;;32.92;27.75;;;;;;;19.28;98.64;101584.31;5006066;28;20053;-78
2023/09/10 02:21:11;;;;;;;35.00;29.85;;;;;;;19.32;98.17;101593.00;4998608;28;20048;-79
2023/09/10 02:23:43;;;;;;;30.88;26.00;;;;;;;19.33;98.52;101586.72;5000382;28;20061;-79
2023/09/10 02:26:10;;;;;;;27.77;23.85;;;;;;;19.37;98.66;101586.47;5005010;28;20391;-79
2023/09/10 02:28:38;;;;;;;33.10;29.38;;;;;;;19.45;98.01;101601.19;5005434;28;20052;-79
2023/09/10 02:31:08;;;;;;;33.38;28.63;;;;;;;19.47;97.81;101589.50;5001098;28;20050;-79
2023/09/10 02:33:35;;;;;;;31.83;27.05;;;;;;;19.48;98.04;101591.22;5005395;28;20046;-81
2023/09/10 02:36:03;;;;;;;32.83;27.33;;;;;;;19.48;97.95;101591.22;5007494;28;20117;-80
2023/09/10 02:38:31;;;;;;;29.73;26.10;;;;;;;19.52;97.91;101586.56;5007942;28;20060;-80
2023/09/10 02:40:59;;;;;;;35.33;30.35;;;;;;;19.54;97.33;101588.19;5039796;28;20046;-80
2023/09/10 02:43:27;;;;;;;38.08;30.15;;;;;;;19.52;97.53;101581.22;5004122;28;20053;-80
2023/09/10 02:45:54;;;;;;;35.92;30.65;;;;;;;19.45;97.06;101586.03;5007268;28;20108;-79
2023/09/10 02:48:22;;;;;;;36.78;31.00;;;;;;;19.39;97.85;101583.69;5020777;28;20095;-78
2023/09/10 02:50:49;;;;;;;34.50;29.23;;;;;;;19.37;98.44;101586.47;4999530;28;20107;-77
2023/09/10 02:53:16;;;;;;;36.83;30.70;;;;;;;19.40;98.52;101580.94;5007377;28;20111;-77
2023/09/10 02:55:43;;;;;;;32.60;26.95;;;;;;;19.42;97.87;101588.88;5005050;28;20041;-77
2023/09/10 02:58:10;;;;;;;35.55;30.40;;;;;;;19.46;97.99;101592.22;5023167;28;20113;-78
2023/09/10 03:00:38;;;;;;;36.67;29.58;;;;;;;19.47;98.05;101594.84;4982843;28;20048;-77
2023/09/10 03:03:05;;;;;;;36.10;31.30;;;;;;;19.46;97.65;101584.22;5005034;28;20165;-78
2023/09/10 03:05:34;;;;;;;35.70;28.50;;;;;;;19.45;97.60;101580.69;5007287;28;20069;-79
2023/09/10 03:08:01;;;;;;;36.53;31.02;;;;;;;19.49;97.79;101590.25;5004095;28;20049;-79
2023/09/10 03:10:28;;;;;;;39.00;32.10;;;;;;;19.53;97.31;101588.28;5005306;28;20532;-79
2023/09/10 03:12:56;;;;;;;36.75;30.42;;;;;;;19.56;97.29;101590.78;5005030;28;20418;-80
2023/09/10 03:15:23;;;;;;;37.78;29.45;;;;;;;19.54;97.16;101588.19;5006523;28;20514;-79
2023/09/10 03:17:51;;;;;;;35.13;30.42;;;;;;;19.50;97.51;101591.13;5004364;28;20117;-79
2023/09/10 03:20:18;;;;;;;37.10;31.08;;;;;;;19.45;97.78;101583.38;5007270;28;20050;-81
2023/09/10 03:22:46;;;;;;;39.80;29.10;;;;;;;19.45;97.69;101585.16;4988679;28;20152;-79
2023/09/10 03:25:13;;;;;;;40.20;31.02;;;;;;;19.46;97.46;101592.22;5018880;28;20042;-80
2023/09/10 03:27:40;;;;;;;37.03;30.23;;;;;;;19.46;97.79;101584.22;5007680;28;20053;-79
2023/09/10 03:30:08;;;;;;;40.05;31.42;;;;;;;19.49;97.47;101586.72;5009934;28;20663;-79
2023/09/10 03:32:35;;;;;;;29.90;25.50;;;;;;;19.53;97.60;101580.25;5005553;28;20564;-80
2023/09/10 03:35:04;;;;;;;34.38;28.33;;;;;;;19.58;97.41;101578.19;4997783;28;20073;-79
2023/09/10 03:37:31;;;;;;;30.88;26.85;;;;;;;19.60;97.14;101580.75;5005775;28;20077;-79
2023/09/10 03:39:58;;;;;;;36.30;28.95;;;;;;;19.63;97.04;101580.59;5009888;28;20587;-78
2023/09/10 03:42:25;;;;;;;39.10;32.70;;;;;;;19.64;96.46;101579.66;5022998;28;20050;-79
2023/09/10 03:44:53;;;;;;;39.05;30.42;;;;;;;19.59;96.46;101576.34;5003838;28;20057;-78
2023/09/10 03:47:20;;;;;;;35.15;30.42;;;;;;;19.57;96.54;101571.09;5006407;28;20052;-80
2023/09/10 03:49:47;;;;;;;39.13;31.08;;;;;;;19.55;97.20;101573.00;5005129;28;20050;-80
2023/09/10 03:52:20;;;;;;;39.33;31.58;;;;;;;19.54;97.31;101576.63;5007150;28;20125;-80
2023/09/10 03:54:48;;;;;;;33.63;29.67;;;;;;;19.55;97.15;101581.00;5037282;28;20165;-80
2023/09/10 03:57:15;;;;;;;32.90;27.38;;;;;;;19.58;97.02;101580.00;5008350;28;20034;-79
2023/09/10 03:59:42;;;;;;;35.45;28.08;;;;;;;19.60;96.99;101581.63;5005231;28;20056;-81
2023/09/10 04:02:13;;;;;;;35.00;28.25;;;;;;;19.62;96.88;101578.88;5005284;28;20513;-81
2023/09/10 04:04:41;;;;;;;35.42;30.40;;;;;;;19.65;96.55;101573.34;5006284;28;20612;-80
2023/09/10 04:07:09;;;;;;;37.20;31.55;;;;;;;19.66;96.54;101572.41;5008999;28;20084;-77
2023/09/10 04:09:36;;;;;;;35.58;30.90;;;;;;;19.67;96.03;101574.97;5006552;28;20073;-77
2023/09/10 04:12:03;;;;;;;33.35;28.58;;;;;;;19.65;95.85;101574.19;5004966;28;20060;-77
2023/09/10 04:14:31;;;;;;;39.72;32.33;;;;;;;19.64;95.99;101569.78;5006254;28;20127;-77
2023/09/10 04:16:58;;;;;;;38.65;32.88;;;;;;;19.63;96.03;101569.91;5002260;28;20045;-77
2023/09/10 04:19:25;;;;;;;38.92;31.33;;;;;;;19.65;95.56;101578.69;5006535;28;20534;-78
2023/09/10 04:21:52;;;;;;;35.38;30.83;;;;;;;19.66;95.86;101575.06;5018351;28;20526;-77
2023/09/10 04:24:19;;;;;;;40.00;34.53;;;;;;;19.65;96.24;101573.34;5006469;28;20052;-77
2023/09/10 04:26:47;;;;;;;36.30;30.35;;;;;;;19.66;96.32;101575.91;4998838;28;20042;-78
2023/09/10 04:29:14;;;;;;;42.38;36.50;;;;;;;19.70;96.16;101574.81;5005198;28;20987;-78
2023/09/10 04:31:43;;;;;;;42.22;36.30;;;;;;;19.69;96.05;101573.09;4998402;28;20604;-77
2023/09/10 04:34:11;;;;;;;44.03;34.42;;;;;;;19.70;95.83;101574.81;5034996;28;20136;-77
2023/09/10 04:36:39;;;;;;;39.78;33.25;;;;;;;19.68;96.24;101566.00;4993472;28;20042;-78
2023/09/10 04:39:09;;;;;;;45.28;39.17;;;;;;;19.72;96.22;101569.34;5006531;28;20092;-78
2023/09/10 04:41:40;;;;;;;42.88;37.92;;;;;;;19.70;95.90;101571.25;5031659;28;20042;-78
2023/09/10 04:44:08;;;;;;;40.13;33.38;;;;;;;19.72;95.85;101569.34;5020809;28;20104;-77
2023/09/10 04:46:36;;;;;;;45.03;38.65;;;;;;;19.75;96.10;101574.53;4999690;28;20513;-79
2023/09/10 04:49:03;;;;;;;46.15;39.03;;;;;;;19.75;95.78;101573.66;4999656;28;20111;-78
2023/09/10 04:51:30;;;;;;;47.15;37.53;;;;;;;19.71;95.82;101570.31;5018409;28;20649;-79
2023/09/10 04:53:59;;;;;;;47.10;39.20;;;;;;;19.69;95.69;101573.09;5021380;28;20117;-77
2023/09/10 04:56:26;;;;;;;47.47;39.90;;;;;;;19.62;95.62;101568.16;5001656;28;20042;-78
2023/09/10 04:58:53;;;;;;;48.28;40.35;;;;;;;19.59;95.96;101573.69;5001300;28;20069;-77
2023/09/10 05:01:21;;;;;;;50.42;41.15;;;;;;;19.54;96.09;101576.63;4984445;28;22476;-77
2023/09/10 05:03:48;;;;;;;51.15;42.13;;;;;;;19.46;95.80;101578.88;5004467;28;20076;-78
2023/09/10 05:06:19;;;;;;;49.63;41.50;;;;;;;19.40;96.05;101586.28;5004712;28;20041;-78
2023/09/10 05:08:46;;;;;;;49.88;42.38;;;;;;;19.35;95.98;101576.81;5004581;28;20564;-79
2023/09/10 05:11:14;;;;;;;53.25;42.78;;;;;;;19.30;96.05;101582.41;5004607;28;20045;-80
2023/09/10 05:13:41;;;;;;;52.30;43.13;;;;;;;19.28;96.41;101589.66;5021386;28;20843;-79
2023/09/10 05:16:09;;;;;;;45.38;38.58;;;;;;;19.28;96.75;101584.31;5018763;28;20127;-78
2023/09/10 05:18:39;;;;;;;43.25;37.40;;;;;;;19.34;96.90;101583.09;5005107;28;20073;-80
2023/09/10 05:21:07;;;;;;;44.35;36.90;;;;;;;19.40;97.18;101585.41;5001437;28;20042;-80
2023/09/10 05:23:34;;;;;;;43.22;36.08;;;;;;;19.41;96.76;101589.81;5001405;28;20048;-79
2023/09/10 05:26:03;;;;;;;48.13;38.95;;;;;;;19.42;96.25;101588.03;5000614;28;20046;-79
2023/09/10 05:28:31;;;;;;;47.45;39.35;;;;;;;19.39;96.56;101589.91;4999739;28;20062;-79
2023/09/10 05:31:08;;;;;;;51.88;39.60;;;;;;;19.45;96.59;101590.50;4999355;28;20457;-79
2023/09/10 05:33:38;;;;;;;46.40;39.28;;;;;;;19.49;96.76;101590.25;5032105;28;20046;-79
2023/09/10 05:36:07;;;;;;;43.60;37.13;;;;;;;19.54;96.91;101596.22;4980791;28;20597;-79
2023/09/10 05:38:34;;;;;;;44.40;37.70;;;;;;;19.58;96.24;101594.22;5018880;28;20045;-80
2023/09/10 05:41:04;;;;;;;48.13;39.20;;;;;;;19.61;96.16;101603.88;5035450;28;20054;-78
2023/09/10 05:43:31;;;;;;;50.20;41.63;;;;;;;19.61;96.11;101594.06;4988506;28;20046;-78
2023/09/10 05:45:59;;;;;;;47.92;38.17;;;;;;;19.65;96.35;101602.75;5003641;28;20042;-79
2023/09/10 05:48:27;;;;;;;43.53;38.25;;;;;;;19.67;96.22;101599.03;5000678;28;20063;-80
2023/09/10 05:50:58;;;;;;;48.90;39.22;;;;;;;19.70;96.29;101598.88;5019574;28;20042;-80
2023/09/10 05:53:28;;;;;;;47.33;39.58;;;;;;;19.74;96.24;101602.25;5000510;28;20042;-82
2023/09/10 05:55:55;;;;;;;51.00;40.63;;;;;;;19.79;96.29;101596.63;5001653;28;20042;-79
2023/09/10 05:58:24;;;;;;;50.95;40.15;;;;;;;19.85;95.81;101607.88;4998204;28;20042;-79
2023/09/10 06:00:55;;;;;;;51.17;39.72;;;;;;;19.93;96.13;101606.56;5002449;28;20574;-80
2023/09/10 06:03:24;;;;;;;46.60;37.83;;;;;;;19.98;95.83;101604.50;5003530;28;20157;-79
2023/09/10 06:05:51;;;;;;;50.05;39.28;;;;;;;20.06;95.54;101606.69;4999495;28;20042;-78
2023/09/10 06:08:18;;;;;;;45.88;38.25;;;;;;;20.09;95.40;101598.50;5008924;28;20077;-79
2023/09/10 06:10:46;;;;;;;48.13;38.42;;;;;;;20.17;95.02;101606.94;5014175;28;20046;-75
2023/09/10 06:13:13;;;;;;;46.38;37.53;;;;;;;20.26;95.40;101608.22;4999023;28;20054;-78
2023/09/10 06:15:41;;;;;;;46.47;37.17;;;;;;;20.35;95.05;101609.50;4980547;28;20046;-77
2023/09/10 06:18:08;;;;;;;47.20;39.22;;;;;;;20.42;94.69;101613.53;5002513;28;20518;-77
2023/09/10 06:20:35;;;;;;;48.72;38.83;;;;;;;20.48;94.15;101611.34;5001022;28;20042;-77
2023/09/10 06:23:03;;;;;;;50.60;38.90;;;;;;;20.56;94.21;101616.22;5001945;28;20130;-77
2023/09/10 06:25:31;;;;;;;46.30;36.70;;;;;;;20.64;93.76;101603.25;5001449;28;20042;-78
2023/09/10 06:27:59;;;;;;;45.83;35.10;;;;;;;20.75;93.43;101612.47;5000091;28;20045;-77
2023/09/10 06:30:27;;;;;;;48.75;37.13;;;;;;;20.85;92.59;101608.28;4995292;28;20054;-77
2023/09/10 06:32:54;;;;;;;41.92;33.45;;;;;;;20.93;92.50;101615.81;5004904;28;20529;-78
2023/09/10 06:35:21;;;;;;;44.17;35.38;;;;;;;21.02;91.97;101609.88;4985937;28;20046;-77
2023/09/10 06:37:48;;;;;;;46.30;34.10;;;;;;;21.12;91.67;101611.97;5002753;28;20080;-78
2023/09/10 06:40:16;;;;;;;42.17;34.78;;;;;;;21.22;91.06;101613.13;5006858;28;20403;-77
2023/09/10 06:42:45;;;;;;;39.67;32.53;;;;;;;21.31;90.37;101611.69;5003484;28;20103;-77
2023/09/10 06:45:23;;;;;;;39.40;32.28;;;;;;;21.35;90.40;101619.44;5003258;28;20046;-77
2023/09/10 06:47:50;;;;;;;40.28;33.45;;;;;;;21.40;89.59;101611.09;5003640;28;20046;-77
2023/09/10 06:50:18;;;;;;;41.10;33.60;;;;;;;21.48;90.10;101615.97;5021541;28;20073;-78
2023/09/10 06:52:45;;;;;;;40.58;33.22;;;;;;;21.56;89.41;101627.06;5001737;28;20042;-77
2023/09/10 06:55:14;;;;;;;40.80;32.38;;;;;;;21.60;88.76;101623.28;5005268;28;20060;-78
2023/09/10 06:57:41;;;;;;;43.05;31.40;;;;;;;21.66;88.29;101617.50;5004348;28;20054;-78
2023/09/10 07:00:11;;;;;;;42.63;32.80;;;;;;;21.72;88.44;101619.75;4982967;28;20050;-77
2023/09/10 07:02:38;;;;;;;37.65;30.23;;;;;;;21.79;87.92;101617.56;5001243;28;20049;-78
2023/09/10 07:05:05;;;;;;;42.70;29.27;;;;;;;21.87;87.29;101625.94;5013616;28;20056;-78
2023/09/10 07:07:33;;;;;;;34.58;27.17;;;;;;;21.98;87.75;101624.38;5033409;28;20073;-78
2023/09/10 07:09:59;;;;;;;35.33;26.33;;;;;;;22.08;87.34;101632.69;4994014;28;20041;-78
2023/09/10 07:12:27;;;;;;;36.13;29.67;;;;;;;22.19;86.91;101630.16;5006293;28;20644;-78
2023/09/10 07:14:54;;;;;;;37.78;30.38;;;;;;;22.29;86.20;101625.00;5006540;28;20045;-77
2023/09/10 07:17:21;;;;;;;39.10;29.23;;;;;;;22.37;86.18;101632.56;5006843;28;20046;-78
2023/09/10 07:19:48;;;;;;;35.15;26.17;;;;;;;22.45;85.45;101632.91;5003303;28;20041;-78
2023/09/10 07:22:15;;;;;;;38.45;28.42;;;;;;;22.55;84.61;101631.31;5007225;28;20046;-77
2023/09/10 07:24:42;;;;;;;39.88;27.30;;;;;;;22.64;85.09;101633.38;5008518;28;20092;-78
2023/09/10 07:27:10;;;;;;;32.63;26.33;;;;;;;22.72;84.46;101634.69;5038414;28;20038;-78
2023/09/10 07:29:37;;;;;;;33.85;27.15;;;;;;;22.82;84.13;101632.19;5004461;28;20137;-78
2023/09/10 07:32:04;;;;;;;33.75;26.88;;;;;;;22.91;83.04;101634.25;5010412;28;20461;-78
2023/09/10 07:34:31;;;;;;;34.95;25.23;;;;;;;22.95;83.88;101631.22;5010834;28;20046;-78
2023/09/10 07:36:58;;;;;;;34.50;25.15;;;;;;;23.03;83.65;101630.69;5004709;28;20481;-78
2023/09/10 07:39:29;;;;;;;30.10;24.65;;;;;;;23.15;82.90;101636.16;5007251;28;20038;-77
2023/09/10 07:41:56;;;;;;;31.27;23.48;;;;;;;23.24;83.38;101630.16;5006035;28;20601;-78
2023/09/10 07:44:23;;;;;;;31.05;24.63;;;;;;;23.34;83.49;101631.22;5005542;28;20468;-77
2023/09/10 07:46:52;;;;;;;29.25;21.73;;;;;;;23.47;83.44;101636.56;5005156;28;20128;-78
2023/09/10 07:49:19;;;;;;;30.90;22.40;;;;;;;23.59;82.68;101637.53;5001672;28;20052;-78
2023/09/10 07:51:46;;;;;;;32.55;21.55;;;;;;;23.68;82.12;101631.47;5003055;28;20052;-75
2023/09/10 07:54:13;;;;;;;30.23;22.38;;;;;;;23.76;81.74;101633.56;4995655;28;20522;-78
2023/09/10 07:56:40;;;;;;;28.38;21.27;;;;;;;23.85;81.39;101646.38;5007429;28;20112;-75
2023/09/10 07:59:11;;;;;;;29.25;21.08;;;;;;;23.94;81.50;101635.88;4999990;28;20097;-75
2023/09/10 08:01:39;;;;;;;30.35;21.98;;;;;;;24.01;80.23;101638.00;5005728;28;20055;-74
2023/09/10 08:04:06;;;;;;;29.25;21.17;;;;;;;24.09;80.44;101640.13;5008764;28;20060;-73
2023/09/10 08:06:34;;;;;;;27.00;21.08;;;;;;;24.20;80.60;101642.03;5006079;28;20042;-73
2023/09/10 08:09:01;;;;;;;27.02;20.13;;;;;;;24.31;79.82;101650.16;5007007;28;20073;-73
2023/09/10 08:11:28;;;;;;;27.42;19.95;;;;;;;24.40;78.55;101651.28;5002056;28;20045;-73
2023/09/10 08:13:55;;;;;;;25.25;19.75;;;;;;;24.48;78.47;101648.00;5005491;28;20042;-73
2023/09/10 08:16:22;;;;;;;25.38;19.35;;;;;;;24.56;77.88;101655.50;5000194;28;20125;-73
2023/09/10 08:18:50;;;;;;;23.08;18.45;;;;;;;24.62;77.47;101649.63;5004599;28;20038;-73
2023/09/10 08:21:17;;;;;;;24.42;18.08;;;;;;;24.72;77.66;101649.81;5008361;28;20042;-73
2023/09/10 08:23:44;;;;;;;27.27;18.83;;;;;;;24.84;78.11;101658.75;5004195;28;20052;-73
2023/09/10 08:26:12;;;;;;;26.85;17.55;;;;;;;24.97;77.42;101656.84;5004703;28;20046;-73
2023/09/10 08:28:39;;;;;;;24.50;17.50;;;;;;;25.08;76.17;101662.22;4999035;28;20121;-72
2023/09/10 08:31:07;;;;;;;24.95;16.40;;;;;;;25.18;75.82;101648.00;5007375;28;20038;-73
2023/09/10 08:33:34;;;;;;;22.38;16.05;;;;;;;25.27;74.91;101652.66;4996864;28;20128;-73
2023/09/10 08:36:01;;;;;;;21.33;16.13;;;;;;;25.36;74.34;101649.22;5000883;28;20046;-72
2023/09/10 08:38:28;;;;;;;27.23;16.45;;;;;;;25.44;74.61;101640.53;4999658;28;20968;-73
2023/09/10 08:40:58;;;;;;;20.83;13.88;;;;;;;25.56;74.55;101644.91;5003533;28;20125;-73
2023/09/10 08:43:41;;;;;;;19.38;14.07;;;;;;;25.68;74.21;101640.38;5006121;28;20042;-73
2023/09/10 08:46:10;;;;;;;19.92;14.45;;;;;;;25.82;72.72;101649.16;5011737;28;20147;-72
2023/09/10 08:48:43;;;;;;;21.73;13.73;;;;;;;25.92;72.08;101638.47;5005930;28;20042;-73
2023/09/10 08:51:12;;;;;;;17.77;13.38;;;;;;;26.01;71.80;101640.41;5018902;28;20056;-73
2023/09/10 08:53:43;;;;;;;18.95;14.35;;;;;;;26.08;70.28;101638.03;4995717;28;20038;-74
2023/09/10 08:56:11;;;;;;;18.55;13.02;;;;;;;26.13;70.40;101630.44;5000203;28;20041;-74
2023/09/10 08:58:42;;;;;;;23.42;13.15;;;;;;;26.22;70.64;101629.66;5001701;28;20527;-73
2023/09/10 09:01:11;;;;;;;20.52;13.63;;;;;;;26.32;70.79;101630.56;5017936;28;20108;-74
2023/09/10 09:03:39;;;;;;;19.33;12.40;;;;;;;26.46;71.00;101637.50;4996208;28;20050;-74
2023/09/10 09:06:08;;;;;;;17.10;12.57;;;;;;;26.57;70.90;101635.72;4999608;28;20100;-74
2023/09/10 09:08:36;;;;;;;19.02;12.57;;;;;;;26.65;70.12;101636.78;5003017;28;20046;-73
2023/09/10 09:11:08;;;;;;;17.60;12.48;;;;;;;26.78;69.27;101638.47;5019026;28;20042;-74
2023/09/10 09:13:44;;;;;;;17.98;12.65;;;;;;;26.87;68.17;101636.78;5010875;28;20069;-74
2023/09/10 09:16:12;;;;;;;18.52;12.05;;;;;;;26.93;69.02;101638.97;5003323;28;20038;-74
2023/09/10 09:18:40;;;;;;;15.10;11.02;;;;;;;27.03;68.63;101628.16;4979927;28;20041;-74
2023/09/10 09:21:16;;;;;;;16.58;11.15;;;;;;;27.13;67.54;101627.22;5003691;28;20101;-74
2023/09/10 09:23:51;;;;;;;16.33;11.57;;;;;;;27.22;66.26;101628.25;5001040;28;20096;-74
2023/09/10 09:26:18;;;;;;;18.92;11.07;;;;;;;27.30;65.25;101624.00;5001487;28;20050;-75
2023/09/10 09:28:46;;;;;;;18.35;10.95;;;;;;;27.35;65.62;101622.63;5002605;28;20054;-74
2023/09/10 09:31:13;;;;;;;18.05;11.60;;;;;;;27.47;65.23;101619.81;5002970;28;20046;-74
2023/09/10 09:33:43;;;;;;;17.48;10.52;;;;;;;27.57;65.51;101623.41;5004629;28;20046;-74
2023/09/10 09:36:11;;;;;;;20.90;9.70;;;;;;;27.66;65.31;101622.56;5002203;28;20158;-75
2023/09/10 09:38:43;;;;;;;14.98;10.43;;;;;;;27.81;65.25;101623.00;5000307;28;20153;-74
2023/09/10 09:41:14;;;;;;;14.07;9.48;;;;;;;27.92;65.11;101621.16;5001217;28;20124;-74
2023/09/10 09:43:41;;;;;;;15.18;8.60;;;;;;;28.04;64.80;101620.00;5001387;28;20425;-75
2023/09/10 09:46:09;;;;;;;16.60;8.63;;;;;;;28.18;63.31;101613.34;5000370;28;20045;-75
2023/09/10 09:48:38;;;;;;;13.45;8.25;;;;;;;28.27;63.45;101625.16;4998088;28;20379;-75
2023/09/10 09:51:06;;;;;;;11.82;7.55;;;;;;;28.34;61.86;101624.47;5002679;28;20050;-74
2023/09/10 09:53:33;;;;;;;15.90;7.80;;;;;;;28.45;61.16;101619.88;4992290;28;20080;-75
2023/09/10 09:56:04;;;;;;;14.60;7.90;;;;;;;28.54;59.28;101624.41;4991334;28;20053;-75
2023/09/10 09:58:33;;;;;;;11.80;7.63;;;;;;;28.60;60.76;101609.44;5002374;28;20049;-75
2023/09/10 10:01:00;;;;;;;14.60;7.60;;;;;;;28.70;61.11;101612.97;5001327;28;20147;-75
2023/09/10 10:03:32;;;;;;;13.15;7.53;;;;;;;28.82;61.45;101614.53;5000735;28;20589;-75
2023/09/10 10:06:01;;;;;;;18.17;9.48;;;;;;;28.91;61.30;101610.06;5006295;28;20054;-75
2023/09/10 10:08:32;;;;;;;21.75;8.45;;;;;;;28.98;61.54;101599.47;5000160;28;20061;-75
2023/09/10 10:11:00;;;;;;;16.48;8.00;;;;;;;29.03;61.39;101599.88;5004808;28;20120;-74
2023/09/10 10:13:27;;;;;;;13.18;7.50;;;;;;;29.12;60.58;101601.69;5002821;28;20058;-75
2023/09/10 10:15:56;;;;;;;12.77;6.70;;;;;;;29.23;60.50;101597.91;4998098;28;20073;-75
2023/09/10 10:18:26;;;;;;;10.10;6.18;;;;;;;29.32;60.68;101592.56;4998839;28;20050;-75
2023/09/10 10:21:03;;;;;;;13.45;6.72;;;;;;;29.40;59.97;101595.44;5003044;28;20054;-75
2023/09/10 10:23:36;;;;;;;13.15;6.72;;;;;;;29.48;60.04;101597.38;5004256;28;20868;-75
2023/09/10 10:26:10;;;;;;;14.30;6.00;;;;;;;29.53;59.29;101593.19;4990249;28;20046;-74
2023/09/10 10:28:39;;;;;;;13.18;5.85;;;;;;;29.56;58.99;101597.44;5001087;28;20632;-74
2023/09/10 10:31:17;;;;;;;11.23;5.97;;;;;;;29.62;57.85;101594.13;5001634;28;20540;-75
2023/09/10 10:33:55;;;;;;;10.15;5.68;;;;;;;29.66;57.83;101591.97;5002574;28;20049;-74
2023/09/10 10:36:55;;;;;;;12.43;5.32;;;;;;;29.69;56.78;101588.94;5000395;28;20613;-74
2023/09/10 10:39:37;;;;;;;11.43;5.68;;;;;;;29.72;56.96;101588.59;4997943;28;20104;-74
2023/09/10 10:42:09;;;;;;;7.95;5.50;;;;;;;29.76;56.49;101579.16;5014512;28;20053;-75
2023/09/10 10:44:38;;;;;;;13.90;6.13;;;;;;;29.83;56.12;101579.38;5001740;28;20076;-75
2023/09/10 10:47:19;;;;;;;12.98;5.60;;;;;;;29.91;56.45;101576.75;5001481;28;20866;-74
2023/09/10 10:49:54;;;;;;;11.38;5.78;;;;;;;30.01;56.54;101582.13;5003393;28;20042;-74
2023/09/10 10:52:31;;;;;;;14.07;5.82;;;;;;;30.10;55.28;101577.59;5020987;28;20042;-74
2023/09/10 10:54:59;;;;;;;12.32;5.90;;;;;;;30.15;54.54;101575.28;5004297;28;20072;-74
2023/09/10 10:57:29;;;;;;;12.48;5.28;;;;;;;30.18;54.37;101570.38;5002818;28;20496;-75
2023/09/10 10:59:57;;;;;;;11.98;5.35;;;;;;;30.22;53.88;101570.91;5003402;28;20217;-75
2023/09/10 11:02:24;;;;;;;9.32;5.63;;;;;;;30.28;54.37;101563.97;5004622;28;20506;-75
2023/09/10 11:05:02;;;;;;;10.43;5.63;;;;;;;30.35;53.15;101567.75;5003966;28;20123;-75
2023/09/10 11:07:32;;;;;;;12.00;6.10;;;;;;;30.37;53.60;101573.91;4995588;28;20038;-75
2023/09/10 11:10:29;;;;;;;15.20;5.70;;;;;;;30.45;54.26;101562.22;5003531;28;20284;-75
2023/09/10 11:13:07;;;;;;;12.18;5.88;;;;;;;30.55;53.93;101568.44;5004870;28;20057;-75
2023/09/10 11:15:35;;;;;;;10.15;5.57;;;;;;;30.64;54.62;101561.16;5021412;28;20049;-75
2023/09/10 11:18:39;;;;;;;10.18;5.80;;;;;;;30.76;53.45;101564.47;5005184;28;20352;-75